Tropical Cyclones
[Index]
Season 2020-2021 Tropical Cyclone 202120 Track Map
Season 2020-2021 Summaries (Operational Data): [AU] [SIO] [SPAC] [SH]
<<- Previous TC | 2020-2021 Season | Next TC ->>

click for intensity scale information  Lat/long Grid: Show Hide

 Date Labels: Show Hide

Operational Tropical Cyclone Data

Name: 202120
Number: 2120

06 Feb 2021 18:00 UTC to 19 Feb 2021 00:00 UTC

    date/time    lat    long     hPa   cat  kts
2021-02-06 18   13.3   177.4    1010         15          
2021-02-07 00   13.6   177.5    1010         15          
2021-02-07 06   13.9   177.9    1010         15          
2021-02-07 12   14.2   178.3    1008         15          
2021-02-07 18   14.7   178.7    1010         15          
2021-02-08 00   15.1   179.1    1007         20          
2021-02-08 06   15.9   179.5    1007         20          
2021-02-08 12   17.3   179.9    1003         20          
2021-02-08 18   18.5   180.0    1000         25          
2021-02-09 00   19.3   179.8W    998         25          
2021-02-09 06   20.1   179.3W    997         25          
2021-02-09 12   21.8   178.6W    997         25          
2021-02-09 18   23.6   177.6W    998         25          
2021-02-10 00   25.1   177.7W    991    1    40          
2021-02-10 06   26.7   177.4W    992    1    35          
2021-02-10 12   28.4   176.7W    992    1    35          
2021-02-10 18   30.2   176.3W    993         30          
2021-02-11 00   32.6   175.5W    996         30          
2021-02-11 06   34.2   173.9W    993         30          
2021-02-11 12   35.6   172.9W    995         30          
2021-02-11 18   36.7   172.2W    992         30          
2021-02-12 00   38.4   170.6W    991         30          
2021-02-12 06   39.9   168.2W                            
2021-02-12 12   41.1   166.2W                            
2021-02-12 18   42.4   164.1W                            
2021-02-13 00   43.1   162.0W                            
2021-02-13 06   43.5   160.6W                            
2021-02-13 12   43.9   158.5W                            
2021-02-13 18   44.0   157.1W                            
2021-02-14 00   43.6   156.3W                            
2021-02-14 06   42.9   156.4W                            
2021-02-14 12   42.1   156.9W                            
2021-02-14 18   40.8   157.6W                            
2021-02-15 00   39.9   157.7W                            
2021-02-15 06   39.4   157.5W                            
2021-02-15 12   39.2   156.9W                            
2021-02-15 18   39.9   156.3W                            
2021-02-16 00   40.6   156.4W                            
2021-02-16 06   41.2   156.2W                            
2021-02-16 12   42.5   154.2W                            
2021-02-16 18   44.0   152.1W                            
2021-02-17 00   46.9   150.6W                            
2021-02-17 06   49.2   150.6W                            
2021-02-17 12   51.1   141.5W                            
2021-02-17 18   53.2   135.6W                            
2021-02-18 00   55.1   131.5W                            
2021-02-18 06   57.2   125.0W                            
2021-02-18 12   58.2   117.4W                            
2021-02-18 18   58.9   108.9W                            
2021-02-19 00   58.9    99.9W                            
Winds were reported as (or converted to) 10-min average.

Tropical cyclone tracks developed by Michael Bath using operational warnings and advisories and Google Maps.


Document: tropical_cyclone_202120.htm
Updated: 7 May 2021
[Australian Severe Weather index] [Copyright Notice] [Email Contacts] [Search This Site] [Privacy Policy]


Main Index Home Page Stock Weather Photos Extreme Storms Discussion Storm News and Storm Chasing Reports Tropical Cyclones / Hurricanes / Typhoons Weather Data and Links Wild Fires / Bushfires Weather Observation Techniques Weather Picture Catalogue Tornado Pictures and Reports Stock Video Footage and DVDs for sale